createdAt,value
2023-01-20T00:03:57.046Z,-0.88
2023-01-20T00:09:01.135Z,-0.82
2023-01-20T00:14:03.445Z,-0.77
2023-01-20T00:19:05.291Z,-0.75
2023-01-20T00:24:07.110Z,-0.76
2023-01-20T00:29:10.040Z,-0.80
2023-01-20T00:34:12.073Z,-0.81
2023-01-20T00:39:13.873Z,-0.86
2023-01-20T00:44:15.661Z,-0.82
2023-01-20T00:49:17.471Z,-0.79
2023-01-20T00:54:19.393Z,-0.76
2023-01-20T00:59:21.200Z,-0.75
2023-01-20T01:04:23.119Z,-0.76
2023-01-20T01:09:24.968Z,-0.77
2023-01-20T01:14:26.811Z,-0.75
2023-01-20T01:19:28.630Z,-0.69
2023-01-20T01:24:30.436Z,-0.67
2023-01-20T01:29:32.257Z,-0.61
2023-01-20T01:34:34.420Z,-0.60
2023-01-20T01:39:36.266Z,-0.67
2023-01-20T01:44:39.695Z,-0.64
2023-01-20T01:49:41.541Z,-0.70
2023-01-20T01:54:45.638Z,-0.63
2023-01-20T01:59:47.569Z,-0.65
2023-01-20T02:04:50.091Z,-0.65
2023-01-20T02:09:53.009Z,-0.70
2023-01-20T02:14:58.931Z,-0.58
2023-01-20T02:20:21.899Z,-0.60
2023-01-20T02:26:09.001Z,-0.61
2023-01-20T02:31:58.784Z,-0.62
2023-01-20T02:37:26.254Z,-0.59
2023-01-20T02:42:39.556Z,-0.60
2023-01-20T02:48:10.154Z,-0.56
2023-01-20T02:53:14.221Z,-0.57
2023-01-20T02:58:40.933Z,-0.63
2023-01-20T03:03:46.635Z,-0.64
2023-01-20T03:08:52.613Z,-0.64
2023-01-20T03:14:05.240Z,-0.69
2023-01-20T03:19:07.114Z,-0.69
2023-01-20T03:24:09.253Z,-0.73
2023-01-20T03:29:12.683Z,-0.70
2023-01-20T03:34:19.696Z,-0.69
2023-01-20T03:39:24.343Z,-0.70
2023-01-20T03:44:41.190Z,-0.67
2023-01-20T03:50:06.927Z,-0.70
2023-01-20T03:55:35.054Z,-0.69
2023-01-20T04:00:42.275Z,-0.73
2023-01-20T04:05:46.114Z,-0.68
2023-01-20T04:10:50.372Z,-0.65
2023-01-20T04:15:52.471Z,-0.67
2023-01-20T04:21:01.642Z,-0.81
2023-01-20T04:26:03.520Z,-0.69
2023-01-20T04:31:05.595Z,-0.72
2023-01-20T04:36:07.704Z,-0.64
2023-01-20T04:41:12.051Z,-0.75
2023-01-20T04:46:15.420Z,-0.87
2023-01-20T04:51:17.471Z,-0.84
2023-01-20T04:56:19.275Z,-0.82
2023-01-20T05:01:21.335Z,-0.79
2023-01-20T05:06:23.194Z,-0.81
2023-01-20T05:11:25.055Z,-0.85
2023-01-20T05:16:31.950Z,-0.73
2023-01-20T05:21:33.881Z,-0.84
2023-01-20T05:26:35.731Z,-0.82
2023-01-20T05:31:38.795Z,-0.76
2023-01-20T05:36:40.646Z,-0.75
2023-01-20T05:41:42.725Z,-0.82
2023-01-20T05:46:44.663Z,-0.83
2023-01-20T05:51:46.592Z,-0.79
2023-01-20T05:56:49.296Z,-0.73
2023-01-20T06:01:51.181Z,-0.63
2023-01-20T06:06:53.547Z,-0.66
2023-01-20T06:11:55.376Z,-0.64
2023-01-20T06:16:57.173Z,-0.70
2023-01-20T06:21:59.017Z,-0.68
2023-01-20T06:27:00.813Z,-0.68
2023-01-20T06:32:02.653Z,-0.67
2023-01-20T06:37:04.484Z,-0.70
2023-01-20T06:42:06.987Z,-0.79
2023-01-20T06:47:08.832Z,-0.69
2023-01-20T06:52:10.720Z,-0.68
2023-01-20T06:57:12.550Z,-0.70
2023-01-20T07:02:14.499Z,-0.75
2023-01-20T07:07:16.379Z,-0.67
2023-01-20T07:12:18.213Z,-0.72
2023-01-20T07:17:20.091Z,-0.67
2023-01-20T07:22:24.017Z,-0.63
2023-01-20T07:27:25.837Z,-0.61
2023-01-20T07:32:31.114Z,-0.62
2023-01-20T07:37:32.964Z,-0.62
2023-01-20T07:42:37.580Z,-0.53
2023-01-20T07:47:39.389Z,-0.48
2023-01-20T07:52:41.280Z,-0.48
2023-01-20T07:57:43.112Z,-0.43
2023-01-20T08:02:45.063Z,-0.31
2023-01-20T08:07:51.184Z,-0.28
2023-01-20T08:12:52.993Z,-0.22
2023-01-20T08:17:55.746Z,-0.19
2023-01-20T08:22:57.568Z,-0.09
2023-01-20T08:27:59.474Z,-0.02
2023-01-20T08:33:01.327Z,0.00
2023-01-20T08:38:03.621Z,0.04
2023-01-20T08:43:05.425Z,0.13
2023-01-20T08:48:08.843Z,0.15
2023-01-20T08:53:10.672Z,0.37
2023-01-20T08:58:12.670Z,0.62
2023-01-20T09:03:14.496Z,0.63
2023-01-20T09:08:17.625Z,0.52
2023-01-20T09:13:19.477Z,0.63
2023-01-20T09:18:21.239Z,0.81
2023-01-20T09:23:23.069Z,0.89
2023-01-20T09:28:25.008Z,1.08
2023-01-20T09:33:27.431Z,1.12
2023-01-20T09:38:47.706Z,1.08
2023-01-20T09:44:13.911Z,1.03
2023-01-20T09:50:02.870Z,1.02
2023-01-20T09:55:17.033Z,1.20
2023-01-20T10:00:23.161Z,1.02
2023-01-20T10:05:33.007Z,0.84
2023-01-20T10:10:49.935Z,0.94
2023-01-20T10:15:56.639Z,0.94
2023-01-20T10:21:01.612Z,1.44
2023-01-20T10:26:11.689Z,1.70
2023-01-20T10:31:28.222Z,1.61
2023-01-20T10:36:31.152Z,1.67
2023-01-20T10:41:44.242Z,1.94
2023-01-20T10:46:55.087Z,2.31
2023-01-20T10:52:02.883Z,2.65
2023-01-20T10:57:06.438Z,2.87
2023-01-20T11:02:15.598Z,2.96
2023-01-20T11:07:18.812Z,2.74
2023-01-20T11:12:25.335Z,2.25
2023-01-20T11:17:27.216Z,2.09
2023-01-20T11:22:35.589Z,2.64
2023-01-20T11:27:42.614Z,3.26
2023-01-20T11:32:44.668Z,4.27
2023-01-20T11:37:46.601Z,4.99
2023-01-20T11:42:49.920Z,5.08
2023-01-20T11:48:06.009Z,4.68
2023-01-20T11:53:20.540Z,4.37
2023-01-20T11:58:26.197Z,4.12
2023-01-20T12:03:51.421Z,4.11
2023-01-20T12:08:56.837Z,4.04
2023-01-20T12:14:27.690Z,3.79
2023-01-20T12:19:44.924Z,3.69
2023-01-20T12:25:08.117Z,3.49
2023-01-20T12:30:42.271Z,3.20
2023-01-20T12:36:06.829Z,3.32
2023-01-20T12:41:24.457Z,3.10
2023-01-20T12:46:35.655Z,2.90
2023-01-20T12:52:09.719Z,2.84
2023-01-20T12:57:33.214Z,2.59
2023-01-20T13:02:41.118Z,2.24
2023-01-20T13:08:00.341Z,2.50
2023-01-20T13:13:23.891Z,2.72
2023-01-20T13:19:04.016Z,2.76
2023-01-20T13:24:06.345Z,2.45
2023-01-20T13:29:21.702Z,2.61
2023-01-20T13:34:31.092Z,2.64
2023-01-20T13:39:46.885Z,2.38
2023-01-20T13:45:08.736Z,2.73
2023-01-20T13:50:34.871Z,2.80
2023-01-20T13:55:45.697Z,2.52
2023-01-20T14:00:56.153Z,2.60
2023-01-20T14:06:07.141Z,2.52
2023-01-20T14:11:17.927Z,2.12
2023-01-20T14:16:30.322Z,1.78
2023-01-20T14:21:40.456Z,1.56
2023-01-20T14:26:42.307Z,1.49
2023-01-20T14:31:46.094Z,1.56
2023-01-20T14:36:48.390Z,1.48
2023-01-20T14:41:51.591Z,1.51
2023-01-20T14:46:56.516Z,1.36
2023-01-20T14:51:58.962Z,1.29
2023-01-20T14:57:18.867Z,1.12
2023-01-20T15:02:31.036Z,1.02
2023-01-20T15:07:33.084Z,0.87
2023-01-20T15:12:35.481Z,0.74
2023-01-20T15:17:41.694Z,0.44
2023-01-20T15:22:44.453Z,0.27
2023-01-20T15:27:53.730Z,0.14
2023-01-20T15:32:55.722Z,0.03
2023-01-20T15:37:57.936Z,-0.09
2023-01-20T15:42:59.928Z,-0.19
2023-01-20T15:48:05.261Z,-0.33
2023-01-20T15:53:07.083Z,-0.36
2023-01-20T15:58:24.328Z,-0.43
2023-01-20T16:03:27.916Z,-0.42
2023-01-20T16:08:36.983Z,-0.45
2023-01-20T16:13:38.927Z,-0.56
2023-01-20T16:18:41.762Z,-0.54
2023-01-20T16:23:44.200Z,-0.53
2023-01-20T16:28:46.105Z,-0.55
2023-01-20T16:33:48.064Z,-0.59
2023-01-20T16:38:51.418Z,-0.66
2023-01-20T16:43:55.120Z,-0.75
2023-01-20T16:49:01.898Z,-0.85
2023-01-20T16:54:03.952Z,-0.93
2023-01-20T16:59:07.360Z,-1.05
2023-01-20T17:04:10.887Z,-1.02
2023-01-20T17:09:14.029Z,-1.02
2023-01-20T17:14:15.903Z,-1.06
2023-01-20T17:19:17.964Z,-1.13
2023-01-20T17:24:19.870Z,-1.21
2023-01-20T17:29:22.076Z,-1.35
2023-01-20T17:34:23.959Z,-1.25
2023-01-20T17:39:25.932Z,-1.11
2023-01-20T17:44:27.724Z,-1.14
2023-01-20T17:49:29.531Z,-1.27
2023-01-20T17:54:31.642Z,-1.31
2023-01-20T17:59:33.617Z,-1.31
2023-01-20T18:04:35.441Z,-1.34
2023-01-20T18:09:37.384Z,-1.16
2023-01-20T18:14:39.256Z,-0.98
2023-01-20T18:19:41.101Z,-0.93
2023-01-20T18:24:43.054Z,-0.83
2023-01-20T18:29:45.273Z,-0.76
2023-01-20T18:34:47.137Z,-0.78
2023-01-20T18:39:49.036Z,-0.69
2023-01-20T18:44:50.893Z,-0.65
2023-01-20T18:49:52.714Z,-0.64
2023-01-20T18:54:54.885Z,-0.67
2023-01-20T18:59:56.708Z,-0.67
2023-01-20T19:04:58.747Z,-0.63
2023-01-20T19:10:00.539Z,-0.72
2023-01-20T19:15:02.383Z,-0.73
2023-01-20T19:20:04.847Z,-0.69
2023-01-20T19:25:07.182Z,-0.63
2023-01-20T19:30:10.311Z,-0.66
2023-01-20T19:35:12.337Z,-0.61
2023-01-20T19:40:14.780Z,-0.59
2023-01-20T19:45:16.839Z,-0.61
2023-01-20T19:50:19.256Z,-0.62
2023-01-20T19:55:21.145Z,-0.61
2023-01-20T20:00:23.092Z,-0.59
2023-01-20T20:05:25.007Z,-0.62
2023-01-20T20:10:26.839Z,-0.71
2023-01-20T20:15:28.712Z,-0.80
2023-01-20T20:20:33.049Z,-0.73
2023-01-20T20:25:37.432Z,-0.73
2023-01-20T20:30:42.228Z,-0.78
2023-01-20T20:35:45.370Z,-0.91
2023-01-20T20:40:47.287Z,-0.97
2023-01-20T20:45:49.081Z,-0.88
2023-01-20T20:50:51.132Z,-0.86
2023-01-20T20:55:55.372Z,-0.91
2023-01-20T21:01:02.786Z,-0.95
2023-01-20T21:06:04.763Z,-0.97
2023-01-20T21:11:08.415Z,-1.07
2023-01-20T21:16:15.113Z,-1.08
2023-01-20T21:21:19.828Z,-1.12
2023-01-20T21:26:23.411Z,-1.32
2023-01-20T21:31:28.237Z,-1.28
2023-01-20T21:36:31.474Z,-1.34
2023-01-20T21:41:33.271Z,-1.20
2023-01-20T21:46:38.957Z,-1.19
2023-01-20T21:51:59.793Z,-1.28
2023-01-20T21:57:02.185Z,-1.42
2023-01-20T22:02:04.234Z,-1.33
2023-01-20T22:07:06.772Z,-1.33
2023-01-20T22:12:09.487Z,-1.27
2023-01-20T22:17:13.594Z,-1.23
2023-01-20T22:22:15.508Z,-1.16
2023-01-20T22:27:17.376Z,-1.19
2023-01-20T22:32:19.179Z,-1.18
2023-01-20T22:37:21.259Z,-1.19
2023-01-20T22:42:23.120Z,-1.22
2023-01-20T22:47:24.901Z,-1.14
2023-01-20T22:52:26.723Z,-1.11
2023-01-20T22:57:31.550Z,-1.10
2023-01-20T23:02:33.779Z,-0.99
2023-01-20T23:07:38.471Z,-1.11
2023-01-20T23:12:40.275Z,-1.11
2023-01-20T23:17:42.065Z,-1.03
2023-01-20T23:22:43.855Z,-1.19
2023-01-20T23:27:45.682Z,-1.12
2023-01-20T23:32:47.496Z,-1.12
2023-01-20T23:37:49.795Z,-1.21
2023-01-20T23:42:51.850Z,-1.33
2023-01-20T23:47:53.834Z,-1.33
2023-01-20T23:52:55.631Z,-1.50
2023-01-20T23:57:57.407Z,-1.38
